Time;durP1;ratioP1;P1;durP2;ratioP2;P2;SDS_P1;SDS_P2;PMS_P1;PMS_P2;Temp;Humidity;BMP_temperature;BMP_pressure;BME280_temperature;BME280_humidity;BME280_pressure;Samples;Min_cycle;Max_cycle;Signal;HPM_P1;HPM_P2
2022/11/26 00:00:40;;;;;;;80.28;47.08;;;3.60;99.90;;;;;;4993207;28;20604;-69
2022/11/26 00:03:11;;;;;;;87.47;42.05;;;3.50;99.90;;;;;;4995339;28;20120;-69
2022/11/26 00:05:39;;;;;;;72.88;42.53;;;3.50;99.90;;;;;;4995563;28;20101;-70
2022/11/26 00:08:19;;;;;;;66.50;41.15;;;3.40;99.90;;;;;;4993780;28;20109;-69
2022/11/26 00:10:51;;;;;;;151.82;72.00;;;3.50;99.90;;;;;;4995030;28;20022;-69
2022/11/26 00:13:20;;;;;;;84.68;44.72;;;3.30;99.90;;;;;;4991478;28;20412;-72
2022/11/26 00:15:47;;;;;;;85.43;44.80;;;3.30;99.90;;;;;;4993872;28;20042;-69
2022/11/26 00:18:14;;;;;;;69.38;42.70;;;3.30;99.90;;;;;;4994406;28;20102;-68
2022/11/26 00:20:41;;;;;;;55.83;38.25;;;3.30;99.90;;;;;;4992829;28;20465;-67
2022/11/26 00:23:25;;;;;;;67.78;41.17;;;3.40;99.90;;;;;;4994010;28;20093;-68
2022/11/26 00:25:57;;;;;;;153.48;49.05;;;3.50;99.90;;;;;;4993457;28;20041;-69
2022/11/26 00:28:34;;;;;;;180.93;55.45;;;3.50;99.90;;;;;;4993286;28;20026;-68
2022/11/26 00:31:03;;;;;;;108.82;44.17;;;3.50;99.90;;;;;;4993493;28;20030;-67
2022/11/26 00:33:30;;;;;;;264.20;74.70;;;3.30;99.90;;;;;;4993330;28;20026;-67
2022/11/26 00:36:01;;;;;;;183.90;60.03;;;3.00;99.90;;;;;;4993356;28;20022;-67
2022/11/26 00:38:28;;;;;;;352.23;90.10;;;2.90;99.90;;;;;;4989435;28;20062;-69
2022/11/26 00:40:54;;;;;;;186.40;53.22;;;2.80;99.90;;;;;;4994034;28;20030;-67
2022/11/26 00:43:20;;;;;;;242.60;64.07;;;2.80;99.90;;;;;;4992841;28;20484;-72
2022/11/26 00:45:49;;;;;;;328.88;84.50;;;2.80;99.90;;;;;;4993297;28;20029;-70
2022/11/26 00:48:16;;;;;;;166.27;52.70;;;2.80;99.90;;;;;;4993158;28;20473;-70
2022/11/26 00:50:46;;;;;;;168.57;52.90;;;2.80;99.90;;;;;;4993515;28;20484;-72
2022/11/26 00:53:15;;;;;;;209.30;63.00;;;2.80;99.90;;;;;;4994721;28;20034;-72
2022/11/26 00:55:45;;;;;;;272.33;70.22;;;2.80;99.90;;;;;;4985637;28;20113;-66
2022/11/26 00:58:28;;;;;;;206.52;61.58;;;2.80;99.90;;;;;;4982541;28;20038;-66
2022/11/26 01:00:59;;;;;;;293.48;78.22;;;2.80;99.90;;;;;;4991288;28;20604;-70
2022/11/26 01:03:25;;;;;;;297.42;90.68;;;2.80;99.90;;;;;;4994010;28;20046;-71
2022/11/26 01:05:53;;;;;;;238.43;67.70;;;2.80;99.90;;;;;;4991552;28;20421;-72
2022/11/26 01:08:37;;;;;;;274.83;76.78;;;2.90;99.90;;;;;;4991390;28;20125;-71
2022/11/26 01:11:04;;;;;;;179.68;58.85;;;2.70;99.90;;;;;;4992999;28;20027;-67
2022/11/26 01:13:30;;;;;;;250.05;68.97;;;2.70;99.90;;;;;;4992295;28;20022;-74
2022/11/26 01:15:59;;;;;;;120.25;49.35;;;2.80;99.90;;;;;;4992152;28;20104;-69
2022/11/26 01:18:34;;;;;;;111.88;48.60;;;2.80;99.90;;;;;;4986347;28;20084;-67
2022/11/26 01:21:00;;;;;;;197.93;62.58;;;3.00;99.90;;;;;;4992410;28;20027;-69
2022/11/26 01:23:25;;;;;;;282.00;76.10;;;2.90;99.90;;;;;;4992063;28;20392;-71
2022/11/26 01:25:51;;;;;;;215.02;72.03;;;2.80;99.90;;;;;;4981145;28;20019;-70
2022/11/26 01:28:18;;;;;;;181.52;56.15;;;2.90;99.90;;;;;;4984500;28;20080;-68
2022/11/26 01:30:44;;;;;;;106.57;46.65;;;3.00;99.90;;;;;;4992196;28;20048;-67
2022/11/26 01:33:36;;;;;;;166.68;53.65;;;3.10;99.90;;;;;;4991944;28;20062;-67
2022/11/26 01:36:25;;;;;;;214.55;55.90;;;3.20;99.90;;;;;;4930744;29;20047;-66
2022/11/26 01:38:56;;;;;;;148.40;48.35;;;3.30;99.90;;;;;;4930965;29;20047;-68
2022/11/26 01:41:46;;;;;;;77.95;42.00;;;3.30;99.90;;;;;;4916541;29;20075;-69
2022/11/26 01:44:19;;;;;;;86.97;42.65;;;3.40;99.90;;;;;;4921195;29;20041;-67
2022/11/26 01:46:45;;;;;;;75.20;42.92;;;3.50;99.90;;;;;;4932981;29;20032;-69
2022/11/26 01:49:15;;;;;;;79.22;39.45;;;3.60;99.90;;;;;;4932083;29;20048;-69
2022/11/26 01:51:41;;;;;;;78.18;40.70;;;3.60;99.90;;;;;;4933473;29;20043;-72
2022/11/26 01:54:07;;;;;;;104.00;41.08;;;3.60;99.90;;;;;;4932513;29;20047;-71
2022/11/26 01:56:39;;;;;;;86.00;41.83;;;3.70;99.90;;;;;;4932435;29;20573;-75
2022/11/26 01:59:14;;;;;;;80.50;38.85;;;3.60;99.90;;;;;;4932423;29;20634;-70
2022/11/26 02:01:40;;;;;;;164.98;46.00;;;3.60;99.90;;;;;;4932492;29;20036;-74
2022/11/26 02:04:43;;;;;;;150.85;47.17;;;3.50;99.90;;;;;;4932642;29;20498;-68
2022/11/26 02:07:09;;;;;;;185.73;50.05;;;3.30;99.90;;;;;;4932122;29;20040;-74
2022/11/26 02:09:35;;;;;;;120.38;43.05;;;3.40;99.90;;;;;;4931703;29;20090;-70
2022/11/26 02:12:01;;;;;;;96.38;41.58;;;3.50;99.90;;;;;;4935525;28;20035;-70
2022/11/26 02:14:34;;;;;;;296.38;70.93;;;3.60;99.90;;;;;;4987692;28;20038;-70
2022/11/26 02:17:12;;;;;;;172.50;52.95;;;3.30;99.90;;;;;;4989943;28;20054;-68
2022/11/26 02:20:02;;;;;;;234.98;65.78;;;3.20;99.90;;;;;;4987211;28;20042;-71
2022/11/26 02:22:40;;;;;;;436.95;86.20;;;3.00;99.90;;;;;;4990498;28;20766;-70
2022/11/26 02:25:38;;;;;;;483.83;92.20;;;2.90;99.90;;;;;;4992813;28;20034;-69
2022/11/26 02:28:27;;;;;;;451.80;92.57;;;2.80;99.90;;;;;;4991025;28;20026;-70
2022/11/26 02:31:04;;;;;;;376.92;78.35;;;2.80;99.90;;;;;;4980410;28;20543;-73
2022/11/26 02:33:58;;;;;;;355.42;70.60;;;2.70;99.90;;;;;;4987561;28;20073;-69
2022/11/26 02:36:30;;;;;;;237.02;56.17;;;2.60;99.90;;;;;;4988535;28;20022;-74
2022/11/26 02:38:56;;;;;;;274.80;62.95;;;2.60;99.90;;;;;;4976138;28;20125;-69
2022/11/26 02:41:22;;;;;;;199.77;62.78;;;2.50;99.90;;;;;;4989951;28;20116;-72
2022/11/26 02:43:48;;;;;;;296.52;67.82;;;2.60;99.90;;;;;;4987907;28;20548;-70
2022/11/26 02:46:18;;;;;;;319.02;75.88;;;2.40;99.90;;;;;;4990965;28;20058;-74
2022/11/26 02:48:48;;;;;;;237.82;64.38;;;2.30;99.90;;;;;;4992438;28;20030;-68
2022/11/26 02:51:19;;;;;;;302.38;80.57;;;2.00;99.90;;;;;;4991856;28;20474;-69
2022/11/26 02:53:47;;;;;;;166.50;42.97;;;1.90;99.90;;;;;;4990616;28;20030;-73
2022/11/26 02:56:20;;;;;;;145.85;44.55;;;2.00;99.90;;;;;;4983150;28;20026;-69
2022/11/26 02:58:48;;;;;;;232.32;64.47;;;2.00;99.90;;;;;;4992339;28;20069;-68
2022/11/26 03:01:34;;;;;;;187.25;51.55;;;1.90;99.90;;;;;;4991471;28;20022;-67
2022/11/26 03:04:09;;;;;;;95.68;39.35;;;1.90;99.90;;;;;;4992270;28;20038;-68
2022/11/26 03:06:35;;;;;;;188.00;52.30;;;2.00;99.90;;;;;;4992367;28;20050;-68
2022/11/26 03:09:01;;;;;;;249.85;70.63;;;1.90;99.90;;;;;;4986746;28;20042;-67
2022/11/26 03:11:27;;;;;;;115.40;43.85;;;1.80;99.90;;;;;;4992145;28;20022;-68
2022/11/26 03:13:53;;;;;;;205.13;60.65;;;1.90;99.90;;;;;;4992012;28;20101;-68
2022/11/26 03:16:19;;;;;;;309.50;81.00;;;1.80;99.90;;;;;;4990714;28;20078;-70
2022/11/26 03:18:45;;;;;;;257.85;65.88;;;1.80;99.90;;;;;;4990919;28;20033;-70
2022/11/26 03:21:10;;;;;;;268.83;72.18;;;1.80;99.90;;;;;;4990571;28;20048;-67
2022/11/26 03:23:36;;;;;;;79.53;39.13;;;1.80;99.90;;;;;;4991864;28;20393;-67
2022/11/26 03:26:02;;;;;;;53.63;33.65;;;1.90;99.90;;;;;;4992350;28;20026;-70
2022/11/26 03:28:28;;;;;;;69.13;37.53;;;2.00;99.90;;;;;;4988007;28;20097;-68
2022/11/26 03:30:54;;;;;;;101.93;36.83;;;2.20;99.90;;;;;;4992252;28;20026;-70
2022/11/26 03:33:20;;;;;;;67.35;34.50;;;2.20;99.90;;;;;;4992117;28;20076;-72
2022/11/26 03:35:49;;;;;;;124.72;38.03;;;2.20;99.90;;;;;;5010703;28;20026;-71
2022/11/26 03:38:15;;;;;;;199.13;46.55;;;2.20;99.90;;;;;;4995921;28;20504;-68
2022/11/26 03:40:41;;;;;;;79.63;35.10;;;2.20;99.90;;;;;;4995932;28;20030;-68
2022/11/26 03:43:07;;;;;;;143.75;39.65;;;2.30;99.90;;;;;;4987094;28;20061;-69
2022/11/26 03:45:33;;;;;;;254.52;55.42;;;2.20;99.90;;;;;;4994646;28;20472;-69
2022/11/26 03:47:59;;;;;;;81.90;37.22;;;2.10;99.90;;;;;;4994967;28;20026;-71
2022/11/26 03:50:25;;;;;;;72.15;38.03;;;2.30;99.90;;;;;;4995393;28;20496;-68
2022/11/26 03:52:51;;;;;;;243.88;48.83;;;2.40;99.90;;;;;;4987868;28;20046;-68
2022/11/26 03:55:16;;;;;;;157.18;42.92;;;2.30;99.90;;;;;;4995279;28;20030;-71
2022/11/26 03:57:42;;;;;;;183.30;47.70;;;2.40;99.90;;;;;;4995900;28;20085;-69
2022/11/26 04:00:09;;;;;;;191.85;44.65;;;2.50;99.90;;;;;;4995255;28;20053;-71
2022/11/26 04:02:35;;;;;;;186.98;44.80;;;2.50;99.90;;;;;;4993489;28;20041;-71
2022/11/26 04:05:01;;;;;;;155.77;44.30;;;2.50;99.90;;;;;;4994128;28;20473;-71
2022/11/26 04:07:27;;;;;;;153.07;42.05;;;2.60;99.90;;;;;;4994080;28;20034;-70
2022/11/26 04:09:53;;;;;;;164.30;43.90;;;2.60;99.90;;;;;;4995289;28;20057;-74
2022/11/26 04:12:18;;;;;;;127.50;40.97;;;2.60;99.90;;;;;;4995259;28;20037;-74
2022/11/26 04:14:44;;;;;;;113.78;38.42;;;2.60;99.90;;;;;;4995306;28;20034;-69
2022/11/26 04:17:10;;;;;;;136.80;37.03;;;2.60;99.90;;;;;;4995311;28;20057;-68
2022/11/26 04:19:36;;;;;;;110.03;37.72;;;2.60;99.90;;;;;;4995234;28;20021;-75
2022/11/26 04:22:02;;;;;;;116.88;39.47;;;2.60;99.90;;;;;;4995480;28;20388;-69
2022/11/26 04:24:28;;;;;;;321.63;71.65;;;2.60;99.90;;;;;;4995251;28;20030;-72
2022/11/26 04:26:54;;;;;;;202.20;48.05;;;2.60;99.90;;;;;;4995185;28;20026;-70
2022/11/26 04:29:20;;;;;;;195.13;43.30;;;2.60;99.90;;;;;;4994587;28;20038;-67
2022/11/26 04:31:45;;;;;;;192.65;44.25;;;2.50;99.90;;;;;;4994118;28;20019;-70
2022/11/26 04:34:11;;;;;;;108.53;40.58;;;2.50;99.90;;;;;;4993983;28;20060;-72
2022/11/26 04:36:38;;;;;;;88.05;37.47;;;2.60;99.90;;;;;;4994673;28;20047;-69
2022/11/26 04:39:04;;;;;;;110.03;40.20;;;2.60;99.90;;;;;;4994794;28;20037;-68
2022/11/26 04:41:30;;;;;;;119.15;38.72;;;2.70;99.90;;;;;;4994888;28;20026;-68
2022/11/26 04:43:56;;;;;;;113.55;40.10;;;2.60;99.90;;;;;;4996521;28;20365;-68
2022/11/26 04:46:22;;;;;;;123.88;40.47;;;2.60;99.90;;;;;;4983311;28;20544;-69
2022/11/26 04:48:48;;;;;;;125.05;38.83;;;2.60;99.90;;;;;;4994757;28;20077;-68
2022/11/26 04:51:13;;;;;;;90.05;36.53;;;2.60;99.90;;;;;;4994617;28;20046;-69
2022/11/26 04:53:39;;;;;;;123.00;38.33;;;2.60;99.90;;;;;;4994671;28;20083;-69
2022/11/26 04:56:05;;;;;;;159.68;45.33;;;2.60;99.90;;;;;;4989691;28;20059;-73
2022/11/26 04:58:32;;;;;;;179.90;47.05;;;2.60;99.90;;;;;;4985751;28;20458;-70
2022/11/26 05:00:57;;;;;;;153.73;40.45;;;2.40;99.90;;;;;;4979166;28;20062;-72
2022/11/26 05:03:23;;;;;;;197.20;47.80;;;2.40;99.90;;;;;;4990321;28;20066;-68
2022/11/26 05:05:49;;;;;;;160.95;40.40;;;2.30;99.90;;;;;;4991975;28;20476;-70
2022/11/26 05:08:15;;;;;;;161.93;42.53;;;2.30;99.90;;;;;;4982671;28;20026;-68
2022/11/26 05:10:41;;;;;;;190.70;43.00;;;2.20;99.90;;;;;;4986904;28;20023;-70
2022/11/26 05:13:06;;;;;;;176.98;40.80;;;2.20;99.90;;;;;;4991377;28;20080;-69
2022/11/26 05:15:32;;;;;;;124.78;37.33;;;2.30;99.90;;;;;;4994082;28;20539;-69
2022/11/26 05:17:58;;;;;;;218.85;47.90;;;2.30;99.90;;;;;;4973575;28;20054;-69
2022/11/26 05:20:24;;;;;;;99.90;36.75;;;2.30;99.90;;;;;;4994302;28;20034;-69
2022/11/26 05:22:50;;;;;;;199.15;43.28;;;2.40;99.90;;;;;;4994145;28;20401;-70
2022/11/26 05:25:16;;;;;;;95.32;41.40;;;2.40;99.90;;;;;;4994139;28;20069;-69
2022/11/26 05:27:42;;;;;;;132.85;44.83;;;2.50;99.90;;;;;;4993922;28;20034;-73
2022/11/26 05:30:08;;;;;;;127.53;42.00;;;2.50;99.90;;;;;;4991380;28;20457;-68
2022/11/26 05:32:34;;;;;;;142.18;49.65;;;2.40;99.90;;;;;;4993963;28;20030;-68
2022/11/26 05:34:59;;;;;;;138.23;44.85;;;2.40;99.90;;;;;;4993785;28;20022;-69
2022/11/26 05:37:25;;;;;;;242.80;52.60;;;2.40;99.90;;;;;;4993054;28;20473;-68
2022/11/26 05:39:51;;;;;;;201.15;50.70;;;2.30;99.90;;;;;;4991875;28;20030;-68
2022/11/26 05:42:17;;;;;;;133.32;43.38;;;2.30;99.90;;;;;;4993808;28;20073;-69
2022/11/26 05:44:43;;;;;;;95.63;38.60;;;2.30;99.90;;;;;;4992034;28;20018;-70
2022/11/26 05:47:08;;;;;;;142.75;42.10;;;2.10;99.90;;;;;;4991697;28;20516;-70
2022/11/26 05:49:34;;;;;;;169.32;42.03;;;2.10;99.90;;;;;;4984520;28;20019;-73
2022/11/26 05:52:00;;;;;;;154.18;36.17;;;2.00;99.90;;;;;;4993489;28;20041;-70
2022/11/26 05:54:26;;;;;;;91.68;34.80;;;2.00;99.90;;;;;;4993939;28;20022;-69
2022/11/26 05:56:52;;;;;;;176.10;42.90;;;2.10;99.90;;;;;;4991232;28;20540;-70
2022/11/26 05:59:17;;;;;;;140.82;37.70;;;1.80;99.90;;;;;;4993193;28;20386;-71
2022/11/26 06:01:43;;;;;;;73.30;34.33;;;1.90;99.90;;;;;;4993177;28;20109;-69
2022/11/26 06:04:09;;;;;;;120.18;35.65;;;2.00;99.90;;;;;;4992072;28;20509;-69
2022/11/26 06:06:35;;;;;;;264.98;50.00;;;2.00;99.90;;;;;;4990300;28;20053;-69
2022/11/26 06:09:00;;;;;;;325.60;80.50;;;2.00;99.90;;;;;;4982941;28;20126;-70
2022/11/26 06:11:26;;;;;;;196.73;58.78;;;1.90;99.90;;;;;;4985609;28;20027;-71
2022/11/26 06:13:52;;;;;;;128.00;42.45;;;1.60;99.90;;;;;;5002290;28;20050;-73
2022/11/26 06:16:18;;;;;;;205.35;52.53;;;1.70;99.90;;;;;;4992654;28;20189;-71
2022/11/26 06:18:44;;;;;;;199.35;54.45;;;1.60;99.90;;;;;;4993058;28;20050;-68
2022/11/26 06:21:10;;;;;;;232.15;57.45;;;1.50;99.90;;;;;;4992592;28;20030;-72
2022/11/26 06:23:36;;;;;;;200.95;50.25;;;1.30;99.90;;;;;;4992309;28;20030;-69
2022/11/26 06:26:07;;;;;;;64.95;34.92;;;1.30;99.90;;;;;;4992684;28;20134;-69
2022/11/26 06:28:33;;;;;;;71.32;35.30;;;1.60;99.90;;;;;;4992904;28;20085;-71
2022/11/26 06:30:58;;;;;;;87.68;35.72;;;1.80;99.90;;;;;;4992696;28;20030;-69
2022/11/26 06:33:24;;;;;;;95.97;37.97;;;1.90;99.90;;;;;;4992893;28;20408;-70
2022/11/26 06:35:50;;;;;;;109.75;37.80;;;1.90;99.90;;;;;;4992810;28;20505;-70
2022/11/26 06:38:16;;;;;;;75.65;37.00;;;2.00;99.90;;;;;;4992402;28;20030;-69
2022/11/26 06:40:41;;;;;;;70.40;37.50;;;2.10;99.90;;;;;;4992527;28;20057;-68
2022/11/26 06:43:07;;;;;;;76.20;38.33;;;2.20;99.90;;;;;;4992303;28;20065;-73
2022/11/26 06:45:33;;;;;;;74.25;36.75;;;2.30;99.90;;;;;;4989453;28;20073;-69
2022/11/26 06:47:59;;;;;;;77.85;35.53;;;2.40;99.90;;;;;;4992514;28;20068;-70
2022/11/26 06:50:25;;;;;;;77.63;37.70;;;2.50;99.90;;;;;;5005474;28;20050;-70
2022/11/26 06:52:52;;;;;;;100.72;40.35;;;2.40;99.90;;;;;;4992539;28;20429;-72
2022/11/26 06:55:18;;;;;;;75.65;38.85;;;2.50;99.90;;;;;;4995434;28;20022;-72
2022/11/26 06:57:47;;;;;;;89.88;41.55;;;2.50;99.90;;;;;;4985215;28;20481;-71
2022/11/26 07:00:13;;;;;;;89.07;46.80;;;2.60;99.90;;;;;;4994438;28;20021;-71
2022/11/26 07:02:39;;;;;;;94.82;47.63;;;2.50;99.90;;;;;;4995010;28;20030;-70
2022/11/26 07:05:05;;;;;;;111.55;46.13;;;2.60;99.90;;;;;;5000596;28;20022;-69
2022/11/26 07:07:31;;;;;;;86.43;42.90;;;2.70;99.90;;;;;;4995384;28;20041;-70
2022/11/26 07:09:57;;;;;;;110.75;47.92;;;2.80;99.90;;;;;;4989568;28;20030;-70
2022/11/26 07:12:22;;;;;;;137.90;53.65;;;2.90;99.90;;;;;;4989963;28;20034;-69
2022/11/26 07:14:48;;;;;;;100.13;51.60;;;2.90;99.90;;;;;;4992224;28;20027;-67
2022/11/26 07:17:14;;;;;;;115.53;53.83;;;3.10;99.90;;;;;;4990342;28;20043;-73
2022/11/26 07:19:40;;;;;;;134.07;57.00;;;3.20;99.90;;;;;;4991301;28;20385;-69
2022/11/26 07:22:06;;;;;;;183.93;80.80;;;3.30;99.90;;;;;;4991366;28;20040;-71
2022/11/26 07:24:31;;;;;;;161.27;77.03;;;3.20;99.90;;;;;;4989195;28;20034;-72
2022/11/26 07:26:57;;;;;;;203.65;75.18;;;3.10;99.90;;;;;;4990644;28;20030;-72
2022/11/26 07:29:23;;;;;;;140.80;56.65;;;3.00;99.90;;;;;;4990956;28;20033;-68
2022/11/26 07:31:49;;;;;;;149.60;63.20;;;3.10;99.90;;;;;;4989596;28;20058;-72
2022/11/26 07:34:15;;;;;;;201.50;69.38;;;3.10;99.90;;;;;;4991002;28;20469;-74
2022/11/26 07:36:42;;;;;;;127.40;59.65;;;3.00;99.90;;;;;;4990082;28;20026;-70
2022/11/26 07:39:10;;;;;;;129.20;60.78;;;3.10;99.90;;;;;;4988666;28;20034;-69
2022/11/26 07:41:36;;;;;;;123.18;59.83;;;3.10;99.90;;;;;;4990739;28;20038;-69
2022/11/26 07:44:02;;;;;;;133.98;57.90;;;3.20;99.90;;;;;;4991343;28;20520;-70
2022/11/26 07:46:28;;;;;;;129.80;55.90;;;3.20;99.90;;;;;;4993848;28;20085;-68
2022/11/26 07:48:55;;;;;;;207.25;77.45;;;3.10;99.90;;;;;;4991128;28;20434;-67
2022/11/26 07:51:26;;;;;;;117.03;55.33;;;3.10;99.90;;;;;;4991156;28;20472;-73
2022/11/26 07:53:53;;;;;;;111.72;51.10;;;3.10;99.90;;;;;;4990513;28;20022;-72
2022/11/26 07:56:19;;;;;;;123.95;52.33;;;3.10;99.90;;;;;;4994349;28;20029;-68
2022/11/26 07:58:45;;;;;;;182.38;57.30;;;3.10;99.90;;;;;;4991257;28;20019;-67
2022/11/26 08:01:14;;;;;;;115.68;51.30;;;3.10;99.90;;;;;;4991706;28;20029;-69
2022/11/26 08:03:41;;;;;;;262.33;67.38;;;3.20;99.90;;;;;;4988176;28;20029;-66
2022/11/26 08:06:09;;;;;;;143.10;49.72;;;3.30;99.90;;;;;;4990955;28;20358;-68
2022/11/26 08:08:35;;;;;;;182.13;54.63;;;3.30;99.90;;;;;;4989487;28;20043;-68
2022/11/26 08:11:02;;;;;;;110.90;48.10;;;3.40;99.90;;;;;;4990801;28;20030;-69
2022/11/26 08:13:29;;;;;;;130.63;47.08;;;3.40;99.90;;;;;;4989990;28;20563;-68
2022/11/26 08:15:54;;;;;;;148.27;50.08;;;3.50;99.90;;;;;;4988852;28;20019;-68
2022/11/26 08:18:20;;;;;;;128.30;42.53;;;3.40;99.90;;;;;;4991068;28;20045;-72
2022/11/26 08:20:55;;;;;;;182.70;54.83;;;3.40;99.90;;;;;;4992591;28;20024;-72
2022/11/26 08:23:22;;;;;;;111.05;41.55;;;3.30;99.90;;;;;;4994090;28;20064;-69
2022/11/26 08:25:48;;;;;;;88.35;40.03;;;3.40;99.90;;;;;;4994428;28;20058;-68
2022/11/26 08:28:14;;;;;;;135.27;40.45;;;3.30;99.90;;;;;;4991620;28;20578;-69
2022/11/26 08:30:40;;;;;;;133.40;40.85;;;3.20;99.90;;;;;;4993586;28;20018;-68
2022/11/26 08:33:06;;;;;;;91.90;40.05;;;3.20;99.90;;;;;;4995133;28;20117;-69
2022/11/26 08:35:34;;;;;;;114.20;41.83;;;3.40;99.90;;;;;;4994396;28;20047;-68
2022/11/26 08:38:00;;;;;;;131.00;47.13;;;3.40;99.90;;;;;;4985929;28;20444;-69
2022/11/26 08:40:26;;;;;;;137.82;45.28;;;3.40;99.90;;;;;;4999894;28;20030;-72
2022/11/26 08:42:52;;;;;;;113.15;48.05;;;3.50;99.90;;;;;;5002744;28;20642;-71
2022/11/26 08:45:17;;;;;;;187.68;60.42;;;3.60;99.90;;;;;;5007948;28;20108;-67
2022/11/26 08:47:43;;;;;;;176.65;59.33;;;3.60;99.90;;;;;;4991178;28;20053;-67
2022/11/26 08:50:09;;;;;;;167.57;44.55;;;3.70;99.90;;;;;;4993798;28;20101;-72
2022/11/26 08:52:35;;;;;;;117.68;43.60;;;3.60;99.90;;;;;;4979957;28;20030;-68
2022/11/26 08:55:01;;;;;;;132.77;43.75;;;3.50;99.90;;;;;;4981270;28;20031;-67
2022/11/26 08:57:27;;;;;;;92.63;42.95;;;3.60;99.90;;;;;;4980123;28;20125;-68
2022/11/26 08:59:54;;;;;;;83.35;29.17;;;3.70;99.90;;;;;;4993522;28;20019;-67
2022/11/26 09:02:21;;;;;;;76.45;35.58;;;3.70;99.90;;;;;;5000903;28;20053;-69
2022/11/26 09:04:47;;;;;;;104.78;32.80;;;3.70;99.90;;;;;;5007668;28;20118;-68
2022/11/26 09:07:13;;;;;;;101.07;35.65;;;3.60;99.90;;;;;;4992147;28;20113;-68
2022/11/26 09:09:39;;;;;;;168.60;42.28;;;3.70;99.90;;;;;;4982839;28;20034;-68
2022/11/26 09:12:05;;;;;;;124.10;40.03;;;3.80;99.90;;;;;;4992753;28;20031;-68
2022/11/26 09:14:36;;;;;;;116.60;41.97;;;3.90;99.90;;;;;;4991899;28;20038;-68
2022/11/26 09:17:03;;;;;;;87.40;37.13;;;4.10;99.90;;;;;;4991232;28;20053;-69
2022/11/26 09:19:29;;;;;;;266.73;57.72;;;4.20;99.90;;;;;;4993312;28;20045;-68
2022/11/26 09:21:55;;;;;;;187.88;48.45;;;3.90;99.90;;;;;;4993361;28;20031;-69
2022/11/26 09:24:21;;;;;;;87.43;36.65;;;4.00;99.90;;;;;;4986557;28;20033;-71
2022/11/26 09:26:48;;;;;;;86.93;34.22;;;4.10;99.90;;;;;;4987988;28;20108;-68
2022/11/26 09:29:17;;;;;;;171.60;48.35;;;4.10;99.90;;;;;;4992523;28;20161;-69
2022/11/26 09:31:44;;;;;;;147.05;40.95;;;4.10;99.90;;;;;;4999618;28;20109;-67
2022/11/26 09:34:10;;;;;;;110.25;41.45;;;4.30;99.90;;;;;;4998801;28;20022;-68
2022/11/26 09:36:37;;;;;;;93.65;38.22;;;4.40;99.90;;;;;;4992658;28;20042;-67
2022/11/26 09:39:03;;;;;;;121.53;42.95;;;4.50;99.90;;;;;;4992929;28;20023;-67
2022/11/26 09:41:50;;;;;;;68.65;35.78;;;4.60;99.90;;;;;;4992903;28;20030;-68
2022/11/26 09:44:18;;;;;;;88.05;37.67;;;4.60;99.90;;;;;;5001855;28;20092;-68
2022/11/26 09:46:59;;;;;;;74.00;36.70;;;4.70;99.90;;;;;;4998203;28;20461;-67
2022/11/26 09:49:29;;;;;;;92.13;39.05;;;4.80;99.90;;;;;;4991356;28;20396;-67
2022/11/26 09:51:57;;;;;;;101.03;43.22;;;4.90;99.90;;;;;;4992337;28;20491;-70
2022/11/26 09:54:27;;;;;;;100.88;46.33;;;5.10;99.90;;;;;;4992248;28;20037;-67
2022/11/26 09:57:16;;;;;;;91.03;42.03;;;5.00;99.90;;;;;;4993213;28;20105;-69
2022/11/26 09:59:45;;;;;;;89.80;42.67;;;4.90;99.90;;;;;;4992312;28;20034;-66
2022/11/26 10:02:12;;;;;;;111.53;43.60;;;4.90;99.90;;;;;;5000738;28;20038;-66
2022/11/26 10:04:39;;;;;;;92.78;39.15;;;4.80;99.90;;;;;;4997127;28;20022;-67
2022/11/26 10:07:34;;;;;;;83.05;39.15;;;4.80;99.90;;;;;;4992625;28;20392;-69
2022/11/26 10:10:26;;;;;;;109.95;40.63;;;5.00;99.90;;;;;;4992637;28;20101;-66
2022/11/26 10:13:01;;;;;;;96.53;41.30;;;5.20;99.90;;;;;;4992300;28;20027;-66
2022/11/26 10:15:34;;;;;;;107.57;41.97;;;5.20;99.90;;;;;;4990422;28;20026;-66
2022/11/26 10:18:31;;;;;;;103.65;37.08;;;5.30;99.90;;;;;;4992081;28;20393;-66
2022/11/26 10:21:27;;;;;;;88.97;40.13;;;5.40;99.90;;;;;;4991112;28;20488;-67
2022/11/26 10:24:12;;;;;;;90.93;41.05;;;5.50;99.90;;;;;;4994330;28;20034;-67
2022/11/26 10:26:39;;;;;;;78.20;44.17;;;5.40;99.90;;;;;;4983036;28;20026;-66
2022/11/26 10:29:23;;;;;;;77.07;41.80;;;5.50;99.90;;;;;;4992378;28;20372;-67
2022/11/26 10:32:00;;;;;;;60.25;36.47;;;5.70;99.90;;;;;;4987311;28;20386;-67
2022/11/26 10:34:41;;;;;;;66.93;36.80;;;5.50;99.90;;;;;;4989895;28;20014;-65
2022/11/26 10:37:07;;;;;;;80.18;40.03;;;5.50;99.90;;;;;;4983264;28;20068;-66
2022/11/26 10:39:33;;;;;;;64.15;35.80;;;5.60;99.90;;;;;;5002398;28;20029;-68
2022/11/26 10:42:12;;;;;;;81.95;44.05;;;5.70;99.90;;;;;;4997650;28;20070;-66
2022/11/26 10:44:39;;;;;;;92.65;46.60;;;5.80;99.90;;;;;;4991761;28;20038;-67
2022/11/26 10:47:25;;;;;;;89.53;47.05;;;5.70;99.90;;;;;;4990778;28;20018;-67
2022/11/26 10:50:19;;;;;;;80.43;47.35;;;5.80;99.90;;;;;;4986283;28;20037;-66
2022/11/26 10:52:45;;;;;;;84.18;44.15;;;5.70;99.90;;;;;;4954329;28;20158;-66
2022/11/26 10:55:17;;;;;;;79.45;45.53;;;5.90;99.90;;;;;;4961849;28;20122;-67
2022/11/26 10:57:49;;;;;;;82.75;46.88;;;5.80;99.90;;;;;;4953709;28;20472;-67
2022/11/26 11:00:39;;;;;;;78.18;43.60;;;5.90;99.90;;;;;;4969303;28;20042;-70
2022/11/26 11:03:28;;;;;;;86.20;44.90;;;5.90;99.90;;;;;;4966571;28;20078;-67
2022/11/26 11:06:18;;;;;;;83.68;48.70;;;5.90;99.90;;;;;;4969211;28;20019;-66
2022/11/26 11:08:46;;;;;;;94.25;52.30;;;6.00;99.90;;;;;;4968860;28;20523;-66
2022/11/26 11:11:22;;;;;;;100.57;53.35;;;5.90;99.90;;;;;;4969198;28;20039;-67
2022/11/26 11:13:49;;;;;;;115.05;57.55;;;5.90;99.90;;;;;;4968908;28;20106;-70
2022/11/26 11:16:39;;;;;;;95.40;52.75;;;5.90;99.90;;;;;;4967921;28;20042;-67
2022/11/26 11:19:22;;;;;;;101.95;57.53;;;5.90;99.90;;;;;;4908696;29;20059;-71
2022/11/26 11:21:48;;;;;;;102.18;54.63;;;6.00;99.90;;;;;;4909883;29;20067;-67
2022/11/26 11:24:28;;;;;;;110.43;61.33;;;6.00;99.90;;;;;;4911431;29;20060;-66
2022/11/26 11:27:01;;;;;;;102.38;57.65;;;6.00;99.90;;;;;;4910493;29;20454;-67
2022/11/26 11:29:36;;;;;;;113.65;56.83;;;6.00;99.90;;;;;;4918532;29;20187;-67
2022/11/26 11:32:05;;;;;;;98.95;57.65;;;6.10;99.90;;;;;;4929600;29;20035;-69
2022/11/26 11:34:34;;;;;;;90.10;53.92;;;6.20;99.90;;;;;;4924891;29;20047;-67
2022/11/26 11:37:01;;;;;;;84.53;53.15;;;6.20;99.90;;;;;;4922759;29;20062;-67
2022/11/26 11:39:33;;;;;;;99.80;56.30;;;6.40;99.90;;;;;;4917944;29;20027;-67
2022/11/26 11:42:02;;;;;;;94.63;55.15;;;6.50;99.90;;;;;;4928247;29;20102;-68
2022/11/26 11:44:43;;;;;;;91.60;52.75;;;6.50;99.90;;;;;;4930891;29;20027;-67
2022/11/26 11:47:19;;;;;;;86.00;49.90;;;6.60;99.90;;;;;;4927693;29;20039;-67
2022/11/26 11:50:02;;;;;;;81.10;48.40;;;6.70;99.90;;;;;;4920503;29;20159;-68
2022/11/26 11:52:48;;;;;;;89.38;53.63;;;6.80;99.90;;;;;;4927419;29;20099;-68
2022/11/26 11:55:54;;;;;;;95.28;54.80;;;6.70;99.90;;;;;;4942630;28;20073;-67
2022/11/26 11:58:50;;;;;;;97.57;57.38;;;6.70;99.90;;;;;;4985764;28;20046;-67
2022/11/26 12:01:43;;;;;;;105.97;59.53;;;6.80;99.90;;;;;;5000327;28;20124;-67
2022/11/26 12:04:25;;;;;;;84.97;51.60;;;6.80;99.90;;;;;;4996775;28;20528;-67
2022/11/26 12:06:51;;;;;;;78.28;48.88;;;6.70;99.90;;;;;;4992952;28;20106;-67
2022/11/26 12:09:19;;;;;;;75.18;46.00;;;6.70;99.90;;;;;;4994491;28;20733;-66
2022/11/26 12:12:08;;;;;;;75.53;47.55;;;6.70;99.90;;;;;;4994764;28;20029;-66
2022/11/26 12:14:40;;;;;;;75.68;47.95;;;6.70;99.90;;;;;;4981020;28;20130;-66
2022/11/26 12:17:47;;;;;;;77.72;46.60;;;6.60;99.90;;;;;;4992620;28;20117;-68
2022/11/26 12:20:18;;;;;;;86.10;48.42;;;6.70;99.90;;;;;;4914379;29;20166;-68
2022/11/26 12:23:13;;;;;;;90.95;49.10;;;6.50;99.90;;;;;;4910324;28;20186;-68
2022/11/26 12:25:39;;;;;;;78.32;43.95;;;6.60;99.90;;;;;;4902537;29;20044;-67
2022/11/26 12:28:14;;;;;;;75.20;44.40;;;6.60;99.90;;;;;;4915451;29;20039;-67
2022/11/26 12:30:53;;;;;;;82.22;52.42;;;6.40;99.90;;;;;;4915089;29;20040;-67
2022/11/26 12:33:28;;;;;;;86.55;49.72;;;6.40;99.90;;;;;;4915513;29;20050;-68
2022/11/26 12:35:58;;;;;;;81.82;46.90;;;6.40;99.90;;;;;;4909658;29;20048;-66
2022/11/26 12:38:43;;;;;;;87.00;53.15;;;6.40;99.90;;;;;;4911654;29;20040;-67
2022/11/26 12:41:17;;;;;;;75.03;45.55;;;6.50;99.90;;;;;;4915405;29;20072;-67
2022/11/26 12:44:12;;;;;;;78.60;46.10;;;6.50;99.90;;;;;;4912215;29;20103;-65
2022/11/26 12:46:44;;;;;;;74.13;43.35;;;6.50;99.90;;;;;;4901610;29;20044;-67